KFEW/FEW METAR and TAF weather

Enter ICAO airport designator
Station Type Date Time Source
KFEW METAR 2022/06/30 12:58 UTC NOAA

KFEW 301258Z 28026G35KT 10SM BKN120 20/06 A3019 RMK AO2A PK WND 28039/37 SLP146 T01980058 $


Station Type Date Time Source
KFEW Decoded METAR 2022/06/30 12:58 UTC NOAA

Station name not available
Jun 30, 2022 - 08:58 AM EDT / 2022.06.30 1258 UTC
Wind: from the W (280 degrees) at 30 MPH (26 KT) gusting to 40 MPH (35 KT):0
Visibility: 10 mile(s):0
Sky conditions: mostly cloudy
Temperature: 67.6 F (19.8 C)
Dew Point: 42.4 F (5.8 C)
Relative Humidity: 39%
Pressure (altimeter): 30.19 in. Hg (1022 hPa)
ob: KFEW 301258Z 28026G35KT 10SM BKN120 20/06 A3019 RMK AO2A PK WND 28039/37 SLP146 T01980058
cycle: 13

Station Type Date Time Source
KFEW TAF UTC NOAA

Error!

Example: see airport list